createdAt,value
2019-02-18T00:00:37.972Z,87.20
2019-02-18T00:03:05.931Z,88.00
2019-02-18T00:05:33.237Z,87.50
2019-02-18T00:08:00.568Z,87.70
2019-02-18T00:10:28.023Z,88.20
2019-02-18T00:12:55.359Z,87.70
2019-02-18T00:15:22.687Z,87.00
2019-02-18T00:18:09.509Z,88.10
2019-02-18T00:20:36.883Z,87.80
2019-02-18T00:23:04.207Z,88.00
2019-02-18T00:25:31.542Z,87.90
2019-02-18T00:27:58.867Z,87.70
2019-02-18T00:30:26.200Z,88.30
2019-02-18T00:33:13.272Z,88.20
2019-02-18T00:35:40.591Z,88.00
2019-02-18T00:38:07.920Z,88.00
2019-02-18T00:40:35.262Z,87.70
2019-02-18T00:43:02.597Z,87.80
2019-02-18T00:45:30.059Z,88.00
2019-02-18T00:47:57.386Z,88.90
2019-02-18T00:50:44.583Z,88.70
2019-02-18T00:53:13.768Z,87.50
2019-02-18T00:55:41.120Z,88.70
2019-02-18T00:58:08.992Z,88.00
2019-02-18T01:00:36.301Z,88.60
2019-02-18T01:03:23.399Z,88.40
2019-02-18T01:05:50.757Z,88.00
2019-02-18T01:08:18.195Z,87.80
2019-02-18T01:10:45.511Z,89.10
2019-02-18T01:13:12.927Z,88.10
2019-02-18T01:15:40.247Z,88.60
2019-02-18T01:18:07.759Z,88.40
2019-02-18T01:20:35.187Z,88.00
2019-02-18T01:23:02.589Z,88.40
2019-02-18T01:25:30.026Z,88.70
2019-02-18T01:27:57.340Z,88.40
2019-02-18T01:30:24.670Z,88.80
2019-02-18T01:32:52.039Z,88.20
2019-02-18T01:35:19.342Z,89.20
2019-02-18T01:37:46.681Z,88.70
2019-02-18T01:40:14.012Z,89.00
2019-02-18T01:42:41.304Z,88.30
2019-02-18T01:45:09.901Z,88.40
2019-02-18T01:47:37.270Z,88.60
2019-02-18T01:50:06.377Z,88.60
2019-02-18T01:52:33.666Z,89.70
2019-02-18T01:55:01.033Z,88.50
2019-02-18T01:57:28.354Z,88.70
2019-02-18T01:59:55.735Z,88.30
2019-02-18T02:02:23.116Z,88.30
2019-02-18T02:04:50.443Z,88.40
2019-02-18T02:07:37.224Z,88.70
2019-02-18T02:10:05.110Z,88.40
2019-02-18T02:12:32.422Z,88.60
2019-02-18T02:14:59.759Z,89.00
2019-02-18T02:17:27.098Z,90.10
2019-02-18T02:19:54.538Z,90.00
2019-02-18T02:22:21.955Z,88.90
2019-02-18T02:24:49.287Z,89.30
2019-02-18T02:27:16.684Z,89.30
2019-02-18T02:29:44.052Z,89.70
2019-02-18T02:32:11.501Z,89.80
2019-02-18T02:34:38.892Z,89.40
2019-02-18T02:37:25.673Z,89.30
2019-02-18T02:39:53.405Z,89.50
2019-02-18T02:42:20.723Z,89.50
2019-02-18T02:44:48.149Z,90.20
2019-02-18T02:47:15.463Z,90.00
2019-02-18T02:49:42.801Z,90.40
2019-02-18T02:52:10.173Z,90.20
2019-02-18T02:54:37.466Z,90.40
2019-02-18T02:57:04.818Z,90.00
2019-02-18T02:59:32.261Z,90.60
2019-02-18T03:01:59.717Z,90.00
2019-02-18T03:04:27.040Z,90.10
2019-02-18T03:06:54.426Z,90.30
2019-02-18T03:09:21.732Z,90.00
2019-02-18T03:11:49.119Z,90.20
2019-02-18T03:14:16.469Z,90.40
2019-02-18T03:16:43.763Z,90.30
2019-02-18T03:19:11.143Z,90.20
2019-02-18T03:21:38.466Z,90.30
2019-02-18T03:24:05.786Z,90.00
2019-02-18T03:26:33.148Z,90.20
2019-02-18T03:29:48.801Z,90.00
2019-02-18T03:32:16.194Z,90.00
2019-02-18T03:34:45.080Z,90.20
2019-02-18T03:37:31.867Z,90.00
2019-02-18T03:39:59.203Z,90.30
2019-02-18T03:42:26.527Z,90.30
2019-02-18T03:44:53.852Z,90.40
2019-02-18T03:47:21.207Z,90.10
2019-02-18T03:49:48.610Z,90.30
2019-02-18T03:52:16.045Z,90.30
2019-02-18T03:54:43.390Z,90.30
2019-02-18T03:57:10.733Z,90.20
2019-02-18T03:59:38.078Z,90.10
2019-02-18T04:02:05.459Z,90.30
2019-02-18T04:04:32.794Z,90.40
2019-02-18T04:07:00.100Z,90.50
2019-02-18T04:09:27.421Z,90.40
2019-02-18T04:11:54.778Z,90.40
2019-02-18T04:14:22.249Z,90.40
2019-02-18T04:16:49.568Z,90.50
2019-02-18T04:19:16.901Z,90.30
2019-02-18T04:21:44.232Z,90.40
2019-02-18T04:24:11.640Z,90.20
2019-02-18T04:26:40.735Z,90.60
2019-02-18T04:29:08.066Z,90.40
2019-02-18T04:31:35.486Z,90.20
2019-02-18T04:34:02.802Z,90.30
2019-02-18T04:36:30.180Z,90.30
2019-02-18T04:38:57.630Z,90.40
2019-02-18T04:41:24.966Z,90.30
2019-02-18T04:43:52.438Z,90.20
2019-02-18T04:46:19.742Z,90.30
2019-02-18T04:48:47.038Z,90.30
2019-02-18T04:51:14.348Z,90.60
2019-02-18T04:53:41.652Z,90.50
2019-02-18T04:56:08.967Z,90.40
2019-02-18T04:58:36.340Z,90.60
2019-02-18T05:01:03.705Z,90.30
2019-02-18T05:03:31.021Z,90.30
2019-02-18T05:05:58.490Z,90.50
2019-02-18T05:08:25.822Z,90.40
2019-02-18T05:10:53.258Z,90.20
2019-02-18T05:13:20.658Z,90.40
2019-02-18T05:15:47.988Z,90.70
2019-02-18T05:18:15.324Z,90.50
2019-02-18T05:20:42.694Z,90.80
2019-02-18T05:23:10.036Z,90.40
2019-02-18T05:25:37.355Z,90.30
2019-02-18T05:28:04.711Z,90.30
2019-02-18T05:30:32.125Z,90.70
2019-02-18T05:32:59.494Z,90.50
2019-02-18T05:35:26.911Z,90.80
2019-02-18T05:37:54.228Z,90.60
2019-02-18T05:40:21.625Z,90.70
2019-02-18T05:42:49.095Z,90.90
2019-02-18T05:45:16.473Z,90.40
2019-02-18T05:47:43.891Z,90.70
2019-02-18T05:50:11.242Z,90.60
2019-02-18T05:52:38.706Z,90.40
2019-02-18T05:55:06.076Z,90.50
2019-02-18T05:57:33.497Z,90.70
2019-02-18T06:00:00.910Z,90.60
2019-02-18T06:02:28.330Z,90.60
2019-02-18T06:04:55.640Z,90.60
2019-02-18T06:07:23.017Z,90.80
2019-02-18T06:09:50.321Z,90.50
2019-02-18T06:12:17.728Z,90.60
2019-02-18T06:14:45.104Z,90.70
2019-02-18T06:17:12.491Z,90.80
2019-02-18T06:19:39.877Z,90.60
2019-02-18T06:22:07.287Z,90.70
2019-02-18T06:24:34.631Z,90.70
2019-02-18T06:27:01.974Z,90.60
2019-02-18T06:29:29.614Z,90.70
2019-02-18T06:32:16.509Z,90.70
2019-02-18T06:34:45.089Z,90.50
2019-02-18T06:37:12.390Z,90.80
2019-02-18T06:39:41.766Z,90.60
2019-02-18T06:42:11.080Z,90.60
2019-02-18T06:44:44.278Z,90.80
2019-02-18T06:47:14.903Z,90.80
2019-02-18T06:49:42.315Z,90.80
2019-02-18T06:52:09.808Z,90.90
2019-02-18T06:54:56.720Z,90.90
2019-02-18T06:57:46.471Z,90.90
2019-02-18T07:00:32.263Z,90.60
2019-02-18T07:03:11.750Z,90.90
2019-02-18T07:06:02.730Z,90.60
2019-02-18T07:08:56.055Z,90.80
2019-02-18T07:11:27.941Z,90.60
2019-02-18T07:14:15.900Z,90.70
2019-02-18T07:19:40.860Z,90.40
2019-02-18T07:22:08.525Z,90.60
2019-02-18T07:24:35.814Z,90.90
2019-02-18T07:27:22.871Z,91.10
2019-02-18T07:29:50.392Z,90.70
2019-02-18T07:32:17.850Z,90.70
2019-02-18T07:34:45.183Z,90.70
2019-02-18T07:37:12.517Z,90.90
2019-02-18T07:40:02.041Z,90.60
2019-02-18T07:42:28.632Z,90.80
2019-02-18T07:44:55.959Z,90.70
2019-02-18T07:47:44.671Z,91.10
2019-02-18T07:50:20.302Z,90.70
2019-02-18T07:52:41.607Z,91.00
2019-02-18T07:55:09.392Z,90.80
2019-02-18T07:57:36.695Z,91.40
2019-02-18T08:00:04.675Z,91.40
2019-02-18T08:02:32.125Z,91.30
2019-02-18T08:05:02.046Z,91.00
2019-02-18T08:07:28.811Z,91.30
2019-02-18T08:09:56.178Z,90.90
2019-02-18T08:12:23.588Z,90.80
2019-02-18T08:14:51.795Z,91.00
2019-02-18T08:17:19.160Z,91.30
2019-02-18T08:19:46.459Z,91.20
2019-02-18T08:22:33.258Z,90.90
2019-02-18T08:25:00.667Z,90.90
2019-02-18T08:27:27.982Z,90.90
2019-02-18T08:29:55.327Z,91.10
2019-02-18T08:32:22.684Z,91.10
2019-02-18T08:34:50.001Z,90.90
2019-02-18T08:37:17.340Z,90.80
2019-02-18T08:39:44.650Z,90.90
2019-02-18T08:42:11.995Z,91.00
2019-02-18T08:44:39.347Z,90.90
2019-02-18T08:47:06.647Z,91.00
2019-02-18T08:49:34.006Z,91.00
2019-02-18T08:52:20.877Z,91.40
2019-02-18T08:54:56.189Z,91.00
2019-02-18T08:57:17.406Z,91.40
2019-02-18T08:59:44.771Z,91.30
2019-02-18T09:02:12.069Z,90.90
2019-02-18T09:04:39.548Z,90.90
2019-02-18T09:07:07.107Z,90.60
2019-02-18T09:09:34.401Z,91.10
2019-02-18T09:12:01.852Z,90.90
2019-02-18T09:14:29.180Z,91.20
2019-02-18T09:16:56.491Z,90.90
2019-02-18T09:19:23.808Z,91.30
2019-02-18T09:21:59.516Z,91.30
2019-02-18T09:24:31.457Z,91.20
2019-02-18T09:26:59.595Z,91.20
2019-02-18T09:29:27.029Z,91.10
2019-02-18T09:31:54.322Z,91.00
2019-02-18T09:34:21.674Z,91.30
2019-02-18T09:37:08.469Z,91.10
2019-02-18T09:39:35.827Z,91.10
2019-02-18T09:42:03.218Z,91.10
2019-02-18T09:44:30.714Z,91.20
2019-02-18T09:46:58.078Z,90.90
2019-02-18T09:49:25.515Z,90.90
2019-02-18T09:51:53.218Z,91.00
2019-02-18T09:54:20.564Z,90.90
2019-02-18T09:56:47.967Z,91.30
2019-02-18T09:59:15.340Z,91.10
2019-02-18T10:01:43.351Z,91.10
2019-02-18T10:04:10.879Z,91.10
2019-02-18T10:06:38.267Z,91.30
2019-02-18T10:09:05.648Z,91.60
2019-02-18T10:11:52.448Z,91.30
2019-02-18T10:14:21.265Z,91.10
2019-02-18T10:16:48.574Z,91.20
2019-02-18T10:19:15.909Z,91.50
2019-02-18T10:21:43.243Z,91.20
2019-02-18T10:24:10.547Z,91.10
2019-02-18T10:26:38.460Z,91.00
2019-02-18T10:29:05.832Z,91.00
2019-02-18T10:31:33.169Z,91.00
2019-02-18T10:34:00.623Z,91.10
2019-02-18T10:36:27.936Z,91.00
2019-02-18T10:38:55.238Z,91.00
2019-02-18T10:41:22.572Z,90.80
2019-02-18T10:43:49.890Z,90.90
2019-02-18T10:46:17.206Z,91.10
2019-02-18T10:48:44.640Z,90.90
2019-02-18T10:51:33.203Z,91.00
2019-02-18T10:54:00.627Z,90.90
2019-02-18T10:56:28.327Z,91.00
2019-02-18T10:58:55.674Z,91.10
2019-02-18T11:01:23.108Z,91.10
2019-02-18T11:03:50.450Z,91.40
2019-02-18T11:06:17.787Z,91.20
2019-02-18T11:08:45.103Z,91.70
2019-02-18T11:11:16.997Z,91.40
2019-02-18T11:13:49.126Z,91.60
2019-02-18T11:16:16.538Z,91.30
2019-02-18T11:18:43.863Z,91.50
2019-02-18T11:21:11.566Z,91.20
2019-02-18T11:23:38.880Z,91.40
2019-02-18T11:26:06.202Z,91.20
2019-02-18T11:28:33.722Z,91.10
2019-02-18T11:31:01.099Z,91.20
2019-02-18T11:33:28.520Z,91.20
2019-02-18T11:35:55.972Z,91.20
2019-02-18T11:38:23.421Z,91.20
2019-02-18T11:40:50.839Z,91.30
2019-02-18T11:43:38.031Z,91.20
2019-02-18T11:48:50.275Z,91.10
2019-02-18T11:51:37.468Z,91.20
2019-02-18T11:54:04.926Z,91.20
2019-02-18T11:56:32.718Z,91.00
2019-02-18T11:59:00.031Z,91.10
2019-02-18T12:01:28.407Z,91.30
2019-02-18T12:04:15.450Z,91.50
2019-02-18T12:06:44.594Z,91.50
2019-02-18T12:09:12.231Z,91.30
2019-02-18T12:11:59.118Z,91.20
2019-02-18T12:14:27.475Z,91.20
2019-02-18T12:16:55.135Z,91.20
2019-02-18T12:19:22.568Z,91.50
2019-02-18T12:21:49.963Z,91.10
2019-02-18T12:24:17.275Z,91.10
2019-02-18T12:27:04.085Z,91.20
2019-02-18T12:29:31.386Z,91.10
2019-02-18T12:31:58.787Z,91.20
2019-02-18T12:34:26.299Z,91.20
2019-02-18T12:36:54.030Z,91.20
2019-02-18T12:39:22.734Z,91.10
2019-02-18T12:41:50.335Z,91.10
2019-02-18T12:44:17.665Z,91.00
2019-02-18T12:46:45.056Z,91.20
2019-02-18T12:49:12.379Z,91.20
2019-02-18T12:51:39.792Z,91.00
2019-02-18T12:54:07.424Z,91.20
2019-02-18T12:56:34.835Z,91.20
2019-02-18T12:59:02.266Z,91.10
2019-02-18T13:01:29.679Z,91.20
2019-02-18T13:03:57.260Z,91.20
2019-02-18T13:06:44.182Z,91.10
2019-02-18T13:09:12.082Z,91.20
2019-02-18T13:11:39.502Z,91.00
2019-02-18T13:14:06.934Z,90.90
2019-02-18T13:16:34.350Z,90.90
2019-02-18T13:19:01.755Z,90.70
2019-02-18T13:21:48.624Z,90.70
2019-02-18T13:24:16.365Z,90.70
2019-02-18T13:26:43.791Z,90.80
2019-02-18T13:29:11.214Z,90.70
2019-02-18T13:31:38.595Z,90.50
2019-02-18T13:34:06.022Z,90.50
2019-02-18T13:36:33.415Z,90.40
2019-02-18T13:39:20.393Z,90.50
2019-02-18T13:41:47.762Z,90.40
2019-02-18T13:44:15.039Z,90.20
2019-02-18T13:46:42.367Z,90.20
2019-02-18T13:49:09.742Z,90.30
2019-02-18T13:51:37.051Z,90.00
2019-02-18T13:54:04.462Z,89.10
2019-02-18T13:56:32.179Z,90.20
2019-02-18T13:58:59.606Z,89.80
2019-02-18T14:01:27.266Z,90.10
2019-02-18T14:03:54.685Z,89.80
2019-02-18T14:06:22.078Z,89.70
2019-02-18T14:09:08.948Z,88.80
2019-02-18T14:11:36.392Z,89.70
2019-02-18T14:14:03.874Z,90.10
2019-02-18T14:16:31.313Z,89.60
2019-02-18T14:18:58.690Z,90.00
2019-02-18T14:21:26.030Z,89.60
2019-02-18T14:23:53.399Z,90.10
2019-02-18T14:26:40.590Z,89.50
2019-02-18T14:29:08.150Z,90.30
2019-02-18T14:31:35.561Z,89.70
2019-02-18T14:34:02.944Z,88.80
2019-02-18T14:36:30.356Z,89.70
2019-02-18T14:38:58.162Z,89.40
2019-02-18T14:41:25.590Z,89.50
2019-02-18T14:43:52.896Z,90.40
2019-02-18T14:46:39.783Z,89.80
2019-02-18T14:49:07.214Z,89.00
2019-02-18T14:51:34.918Z,89.30
2019-02-18T14:54:02.318Z,89.50
2019-02-18T14:56:29.730Z,89.80
2019-02-18T14:58:57.069Z,90.00
2019-02-18T15:01:24.379Z,90.00
2019-02-18T15:03:51.798Z,90.10
2019-02-18T15:06:19.221Z,89.90
2019-02-18T15:09:06.207Z,89.50
2019-02-18T15:11:33.674Z,89.30
2019-02-18T15:14:20.456Z,90.00
2019-02-18T15:16:47.886Z,89.40
2019-02-18T15:19:15.298Z,89.30
2019-02-18T15:21:42.618Z,89.80
2019-02-18T15:24:29.443Z,90.10
2019-02-18T15:26:57.124Z,90.00
2019-02-18T15:29:24.522Z,89.50
2019-02-18T15:31:52.006Z,89.70
2019-02-18T15:34:19.438Z,89.80
2019-02-18T15:36:46.858Z,89.80
2019-02-18T15:39:14.259Z,90.20
2019-02-18T15:41:41.707Z,90.00
2019-02-18T15:44:09.092Z,90.00
2019-02-18T15:46:36.538Z,89.00
2019-02-18T15:49:04.169Z,89.80
2019-02-18T15:51:51.065Z,89.40
2019-02-18T15:54:18.544Z,89.30
2019-02-18T15:57:05.527Z,89.00
2019-02-18T15:59:32.962Z,89.70
2019-02-18T16:02:00.359Z,89.30
2019-02-18T16:04:27.781Z,89.40
2019-02-18T16:06:55.217Z,89.30
2019-02-18T16:09:22.647Z,89.30
2019-02-18T16:11:49.951Z,89.30
2019-02-18T16:14:17.727Z,89.80
2019-02-18T16:16:45.163Z,90.00
2019-02-18T16:19:12.607Z,90.30
2019-02-18T16:21:39.988Z,90.70
2019-02-18T16:24:07.419Z,90.90
2019-02-18T16:26:34.860Z,91.50
2019-02-18T16:29:02.267Z,91.40
2019-02-18T16:31:31.086Z,91.10
2019-02-18T16:34:18.352Z,91.40
2019-02-18T16:36:45.767Z,91.30
2019-02-18T16:39:13.178Z,91.30
2019-02-18T16:41:40.622Z,91.70
2019-02-18T16:44:08.100Z,91.70
2019-02-18T16:46:35.515Z,91.70
2019-02-18T16:49:03.243Z,91.70
2019-02-18T16:51:50.074Z,91.70
2019-02-18T16:54:17.579Z,91.60
2019-02-18T16:56:45.146Z,92.20
2019-02-18T16:59:12.559Z,92.00
2019-02-18T17:01:39.968Z,92.30
2019-02-18T17:04:07.427Z,92.30
2019-02-18T17:06:37.275Z,93.00
2019-02-18T17:09:10.275Z,92.30
2019-02-18T17:11:38.003Z,93.00
2019-02-18T17:14:05.430Z,92.70
2019-02-18T17:16:32.870Z,93.00
2019-02-18T17:19:00.218Z,92.70
2019-02-18T17:21:27.685Z,93.40
2019-02-18T17:23:55.092Z,92.80
2019-02-18T17:26:22.545Z,93.50
2019-02-18T17:28:49.966Z,93.30
2019-02-18T17:31:17.398Z,92.90
2019-02-18T17:33:44.802Z,92.70
2019-02-18T17:36:12.250Z,92.40
2019-02-18T17:38:39.684Z,93.10
2019-02-18T17:41:07.012Z,92.70
2019-02-18T17:43:34.605Z,93.30
2019-02-18T17:46:02.013Z,93.40
2019-02-18T17:48:49.190Z,93.40
2019-02-18T17:51:17.527Z,93.00
2019-02-18T17:54:04.408Z,93.90
2019-02-18T17:56:32.122Z,93.10
2019-02-18T17:58:59.445Z,93.40
2019-02-18T18:01:26.775Z,93.70
2019-02-18T18:03:54.179Z,93.80
2019-02-18T18:06:21.577Z,93.50
2019-02-18T18:08:48.991Z,94.00
2019-02-18T18:11:16.393Z,93.40
2019-02-18T18:13:44.191Z,94.10
2019-02-18T18:16:11.634Z,93.90
2019-02-18T18:18:38.979Z,93.40
2019-02-18T18:21:06.398Z,93.40
2019-02-18T18:23:33.881Z,93.70
2019-02-18T18:26:01.305Z,93.50
2019-02-18T18:28:28.707Z,93.40
2019-02-18T18:30:56.546Z,93.70
2019-02-18T18:33:44.442Z,94.00
2019-02-18T18:36:11.882Z,93.70
2019-02-18T18:38:39.280Z,93.70
2019-02-18T18:41:06.723Z,93.90
2019-02-18T18:43:34.486Z,93.90
2019-02-18T18:46:01.920Z,93.30
2019-02-18T18:48:29.383Z,93.10
2019-02-18T18:51:16.254Z,93.00
2019-02-18T18:53:43.633Z,92.90
2019-02-18T18:56:11.354Z,92.90
2019-02-18T18:58:38.797Z,92.90
2019-02-18T19:01:06.107Z,92.90
2019-02-18T19:03:33.540Z,93.30
2019-02-18T19:06:01.006Z,93.00
2019-02-18T19:08:28.319Z,93.10
2019-02-18T19:10:55.634Z,93.00
2019-02-18T19:13:23.189Z,93.10
2019-02-18T19:15:50.503Z,93.10
2019-02-18T19:18:17.918Z,93.10
2019-02-18T19:20:45.430Z,93.10
2019-02-18T19:23:12.875Z,92.80
2019-02-18T19:25:40.280Z,92.80
2019-02-18T19:28:07.659Z,93.00
2019-02-18T19:30:35.079Z,93.00
2019-02-18T19:33:02.410Z,92.80
2019-02-18T19:35:29.828Z,92.80
2019-02-18T19:37:57.168Z,93.00
2019-02-18T19:40:24.570Z,92.90
2019-02-18T19:42:51.994Z,93.10
2019-02-18T19:45:20.422Z,92.90
2019-02-18T19:47:47.888Z,93.00
2019-02-18T19:50:15.329Z,93.20
2019-02-18T19:52:42.795Z,93.00
2019-02-18T19:55:10.223Z,93.20
2019-02-18T19:57:37.671Z,93.30
2019-02-18T20:00:05.447Z,93.50
2019-02-18T20:02:33.179Z,93.30
2019-02-18T20:05:00.613Z,93.60
2019-02-18T20:07:27.931Z,93.50
2019-02-18T20:09:55.392Z,93.30
2019-02-18T20:12:22.812Z,93.50
2019-02-18T20:14:50.238Z,93.40
2019-02-18T20:17:17.687Z,93.20
2019-02-18T20:19:45.295Z,93.10
2019-02-18T20:22:12.738Z,93.30
2019-02-18T20:24:40.161Z,93.40
2019-02-18T20:27:07.522Z,93.40
2019-02-18T20:29:34.829Z,93.50
2019-02-18T20:32:02.235Z,93.50
2019-02-18T20:34:29.627Z,93.40
2019-02-18T20:36:57.466Z,93.60
2019-02-18T20:39:24.836Z,93.60
2019-02-18T20:41:52.203Z,93.80
2019-02-18T20:44:19.632Z,93.70
2019-02-18T20:46:46.980Z,94.20
2019-02-18T20:49:14.453Z,93.80
2019-02-18T20:51:41.892Z,93.90
2019-02-18T20:54:10.166Z,93.70
2019-02-18T20:56:37.724Z,93.80
2019-02-18T20:59:05.194Z,94.10
2019-02-18T21:01:32.616Z,93.90
2019-02-18T21:04:00.118Z,94.00
2019-02-18T21:06:27.551Z,94.20
2019-02-18T21:08:54.943Z,94.60
2019-02-18T21:11:22.579Z,94.80
2019-02-18T21:13:50.033Z,95.20
2019-02-18T21:16:17.445Z,95.40
2019-02-18T21:18:44.766Z,95.10
2019-02-18T21:21:12.111Z,95.80
2019-02-18T21:23:39.522Z,96.00
2019-02-18T21:26:06.959Z,94.90
2019-02-18T21:28:34.551Z,95.70
2019-02-18T21:31:21.327Z,96.40
2019-02-18T21:34:08.213Z,96.10
2019-02-18T21:36:35.966Z,96.00
2019-02-18T21:39:06.173Z,95.80
2019-02-18T21:41:33.563Z,96.20
2019-02-18T21:44:25.254Z,96.10
2019-02-18T21:46:49.575Z,96.00
2019-02-18T21:49:16.895Z,96.30
2019-02-18T21:52:03.699Z,96.00
2019-02-18T21:54:31.231Z,95.90
2019-02-18T21:56:58.563Z,96.00
2019-02-18T21:59:25.898Z,96.70
2019-02-18T22:01:53.304Z,96.40
2019-02-18T22:04:20.718Z,97.20
2019-02-18T22:06:48.075Z,96.70
2019-02-18T22:09:34.887Z,96.80
2019-02-18T22:12:02.372Z,96.60
2019-02-18T22:14:33.611Z,96.70
2019-02-18T22:16:59.435Z,96.60
2019-02-18T22:19:26.771Z,96.80
2019-02-18T22:21:54.108Z,96.70
2019-02-18T22:24:21.527Z,96.80
2019-02-18T22:26:48.851Z,97.00
2019-02-18T22:29:16.160Z,97.40
2019-02-18T22:31:44.018Z,97.00
2019-02-18T22:34:11.438Z,96.40
2019-02-18T22:36:38.751Z,96.20
2019-02-18T22:39:06.374Z,97.20
2019-02-18T22:41:33.776Z,96.30
2019-02-18T22:44:01.218Z,96.50
2019-02-18T22:46:28.591Z,96.50
2019-02-18T22:49:15.476Z,96.30
2019-02-18T22:51:43.086Z,96.00
2019-02-18T22:54:29.967Z,96.30
2019-02-18T22:56:57.303Z,95.70
2019-02-18T22:59:25.051Z,95.90
2019-02-18T23:01:52.426Z,95.30
2019-02-18T23:04:19.736Z,95.10
2019-02-18T23:06:47.142Z,95.20
2019-02-18T23:09:15.134Z,95.10
2019-02-18T23:11:42.532Z,95.80
2019-02-18T23:14:09.825Z,95.40
2019-02-18T23:16:37.145Z,95.10
2019-02-18T23:19:04.832Z,95.30
2019-02-18T23:21:32.150Z,95.10
2019-02-18T23:23:59.446Z,95.50
2019-02-18T23:26:26.798Z,95.30
2019-02-18T23:28:54.102Z,95.50
2019-02-18T23:31:21.490Z,95.50
2019-02-18T23:33:48.843Z,95.30
2019-02-18T23:36:16.262Z,95.00
2019-02-18T23:38:43.719Z,94.80
2019-02-18T23:41:30.495Z,95.10
2019-02-18T23:43:57.952Z,95.00
2019-02-18T23:46:25.233Z,95.30
2019-02-18T23:48:52.532Z,95.00
2019-02-18T23:51:19.871Z,95.00
2019-02-18T23:53:47.494Z,94.80
2019-02-18T23:56:14.818Z,95.20
2019-02-18T23:58:42.270Z,94.80
